Time;durP1;ratioP1;P1;durP2;ratioP2;P2;SDS_P1;SDS_P2;PMS_P1;PMS_P2;Temp;Humidity;BMP_temperature;BMP_pressure;BME280_temperature;BME280_humidity;BME280_pressure;Samples;Min_cycle;Max_cycle;Signal;HPM_P1;HPM_P2
2021/12/15 00:00:07;;;;;;;59.80;21.98;;;6.30;99.90;;;;;;5110274;28;20052;-70
2021/12/15 00:02:35;;;;;;;63.45;22.40;;;6.20;99.90;;;;;;5110279;28;20044;-69
2021/12/15 00:05:02;;;;;;;64.93;23.00;;;6.20;99.90;;;;;;5109456;28;20048;-70
2021/12/15 00:07:29;;;;;;;69.25;21.98;;;6.10;99.90;;;;;;5110102;28;20052;-70
2021/12/15 00:09:56;;;;;;;65.53;23.33;;;6.10;99.90;;;;;;5110271;28;20100;-70
2021/12/15 00:12:23;;;;;;;74.95;23.35;;;6.10;99.90;;;;;;5109755;28;20047;-70
2021/12/15 00:14:53;;;;;;;66.63;21.27;;;6.10;99.90;;;;;;5109633;28;20108;-70
2021/12/15 00:17:22;;;;;;;78.53;23.40;;;6.00;99.90;;;;;;5110294;28;20051;-70
2021/12/15 00:19:50;;;;;;;86.63;21.27;;;6.00;99.90;;;;;;5109925;28;20051;-70
2021/12/15 00:22:17;;;;;;;79.32;22.42;;;6.00;99.90;;;;;;5108779;28;20121;-70
2021/12/15 00:24:44;;;;;;;82.82;23.23;;;6.10;99.90;;;;;;5109252;28;20055;-70
2021/12/15 00:27:11;;;;;;;70.50;21.63;;;6.00;99.90;;;;;;5109729;28;20054;-70
2021/12/15 00:29:38;;;;;;;82.18;24.50;;;5.90;99.90;;;;;;5109955;28;20514;-70
2021/12/15 00:32:08;;;;;;;104.28;25.10;;;5.90;99.90;;;;;;5110189;28;20395;-70
2021/12/15 00:34:39;;;;;;;75.28;21.67;;;5.90;99.90;;;;;;5109629;28;20051;-70
2021/12/15 00:37:06;;;;;;;70.97;21.77;;;5.90;99.90;;;;;;5109908;28;20059;-70
2021/12/15 00:39:34;;;;;;;88.95;24.00;;;5.90;99.90;;;;;;5109886;28;20047;-70
2021/12/15 00:42:01;;;;;;;92.07;23.00;;;5.80;99.90;;;;;;5109892;28;20100;-70
2021/12/15 00:44:28;;;;;;;86.50;22.70;;;5.80;99.90;;;;;;5109740;28;20089;-70
2021/12/15 00:46:56;;;;;;;92.40;22.58;;;5.80;99.90;;;;;;5109499;28;20048;-70
2021/12/15 00:49:25;;;;;;;99.10;23.00;;;5.80;99.90;;;;;;5110049;28;20052;-70
2021/12/15 00:51:52;;;;;;;67.90;20.52;;;5.80;99.90;;;;;;5109871;28;20108;-70
2021/12/15 00:54:22;;;;;;;71.25;20.25;;;5.80;99.90;;;;;;5109694;28;20051;-70
2021/12/15 00:56:49;;;;;;;89.68;23.50;;;5.80;99.90;;;;;;5108919;28;20056;-70
2021/12/15 00:59:17;;;;;;;82.88;21.83;;;5.80;99.90;;;;;;5109663;28;20076;-70
2021/12/15 01:01:44;;;;;;;83.65;22.77;;;5.90;99.90;;;;;;5109438;28;20407;-69
2021/12/15 01:04:14;;;;;;;85.32;24.02;;;5.90;99.90;;;;;;5109683;28;20442;-70
2021/12/15 01:06:47;;;;;;;77.07;22.45;;;5.90;99.90;;;;;;5108730;28;20172;-70
2021/12/15 01:09:18;;;;;;;92.88;23.73;;;5.90;99.90;;;;;;5109921;28;20124;-70
2021/12/15 01:12:11;;;;;;;74.82;21.45;;;5.90;99.90;;;;;;5109517;28;20087;-70
2021/12/15 01:20:23;;;;;;;74.53;22.05;;;6.00;99.90;;;;;;5109574;28;20050;-70
2021/12/15 01:22:54;;;;;;;79.10;23.52;;;6.00;99.90;;;;;;5109541;28;20453;-69
2021/12/15 01:25:24;;;;;;;77.50;22.90;;;6.00;99.90;;;;;;5108348;28;20048;-69
2021/12/15 01:27:52;;;;;;;77.28;21.67;;;6.00;99.90;;;;;;5109568;28;20120;-69
2021/12/15 01:30:22;;;;;;;69.13;21.17;;;6.00;99.90;;;;;;5109644;28;20056;-70
2021/12/15 01:32:50;;;;;;;72.30;20.92;;;6.00;99.90;;;;;;5109342;28;20048;-70
2021/12/15 01:35:18;;;;;;;68.68;21.42;;;6.00;99.90;;;;;;5198849;22;20074;-75
2021/12/15 01:37:46;;;;;;;66.25;21.38;;;6.00;99.90;;;;;;5115195;28;20051;-76
2021/12/15 01:40:23;;;;;;;76.82;22.65;;;6.10;99.90;;;;;;5115419;28;20051;-75
2021/12/15 01:42:50;;;;;;;69.32;21.17;;;6.00;99.90;;;;;;5115316;28;20043;-75
2021/12/15 01:48:05;;;;;;;80.20;22.00;;;6.10;99.90;;;;;;5114904;28;20423;-77
2021/12/15 01:50:32;;;;;;;67.45;21.45;;;6.10;99.90;;;;;;5115602;28;20048;-78
2021/12/15 01:52:59;;;;;;;74.43;23.40;;;6.10;99.90;;;;;;5115038;28;20143;-76
2021/12/15 01:55:28;;;;;;;66.50;20.95;;;6.10;99.90;;;;;;5114248;28;20059;-80
2021/12/15 01:57:55;;;;;;;65.47;22.08;;;6.10;99.90;;;;;;5115123;28;20055;-76
2021/12/15 02:00:25;;;;;;;70.18;21.98;;;6.20;99.90;;;;;;5115373;28;20565;-76
2021/12/15 02:02:54;;;;;;;64.35;22.38;;;6.10;99.90;;;;;;5114808;28;20297;-76
2021/12/15 02:05:21;;;;;;;64.43;21.80;;;6.20;99.90;;;;;;5113736;28;20139;-76
2021/12/15 02:07:49;;;;;;;58.78;20.05;;;6.20;99.90;;;;;;5114781;28;20043;-76
2021/12/15 02:10:18;;;;;;;70.15;21.35;;;6.10;99.90;;;;;;5114785;28;20059;-76
2021/12/15 02:12:47;;;;;;;68.35;21.70;;;6.20;99.90;;;;;;5114818;28;20079;-77
2021/12/15 02:15:19;;;;;;;61.15;22.35;;;6.10;99.90;;;;;;5114534;28;20040;-76
2021/12/15 02:17:48;;;;;;;76.40;22.65;;;6.10;99.90;;;;;;5114120;28;20059;-76
2021/12/15 02:20:18;;;;;;;118.68;26.73;;;6.10;99.90;;;;;;5114857;28;20059;-76
2021/12/15 02:22:47;;;;;;;151.98;30.67;;;6.00;99.90;;;;;;5114880;28;20100;-76
2021/12/15 02:25:16;;;;;;;285.02;37.83;;;6.00;99.90;;;;;;5114079;28;20108;-76
2021/12/15 02:27:44;;;;;;;201.27;34.97;;;6.00;99.90;;;;;;5114749;28;20043;-77
2021/12/15 02:30:37;;;;;;;211.20;32.92;;;6.00;99.90;;;;;;5114525;28;20053;-77
2021/12/15 02:33:22;;;;;;;201.75;32.15;;;6.00;99.90;;;;;;5113943;28;20059;-76
2021/12/15 02:38:41;;;;;;;98.30;23.17;;;5.90;99.90;;;;;;5115568;28;20049;-75
2021/12/15 02:41:19;;;;;;;90.07;23.40;;;5.90;99.90;;;;;;5114499;28;20056;-75
2021/12/15 02:43:47;;;;;;;117.85;26.27;;;5.90;99.90;;;;;;5114295;28;20047;-75
2021/12/15 02:46:15;;;;;;;122.55;25.35;;;5.90;99.90;;;;;;5112938;28;20112;-75
2021/12/15 02:48:42;;;;;;;144.00;27.35;;;5.80;99.90;;;;;;5114118;28;20092;-75
2021/12/15 02:51:09;;;;;;;136.68;28.67;;;5.70;99.90;;;;;;5115801;28;20043;-75
2021/12/15 02:53:39;;;;;;;187.50;31.98;;;5.80;99.90;;;;;;5114521;28;20172;-76
2021/12/15 02:56:07;;;;;;;164.98;32.13;;;5.80;99.90;;;;;;5113249;28;20465;-76
2021/12/15 02:58:36;;;;;;;137.65;28.23;;;5.80;99.90;;;;;;5114461;28;20073;-75
2021/12/15 03:01:13;;;;;;;114.13;27.15;;;5.80;99.90;;;;;;5114330;28;20082;-75
2021/12/15 03:04:08;;;;;;;;;;;5.80;99.90;;;;;;5113923;28;20043;-75
2021/12/15 03:06:44;;;;;;;99.45;23.42;;;5.80;99.90;;;;;;5113853;28;19919;-77
2021/12/15 03:15:16;;;;;;;75.65;21.25;;;5.80;99.90;;;;;;5114299;28;20055;-75
2021/12/15 03:17:34;;;;;;;73.90;22.73;;;5.90;99.90;;;;;;5113692;28;20514;-76
2021/12/15 03:20:01;;;;;;;87.63;23.23;;;5.80;99.90;;;;;;5113314;28;20097;-76
2021/12/15 03:22:28;;;;;;;73.03;22.48;;;5.80;99.90;;;;;;5113246;28;20093;-75
2021/12/15 03:24:57;;;;;;;77.68;24.70;;;5.80;99.90;;;;;;5112620;28;20043;-77
2021/12/15 03:33:15;;;;;;;78.38;23.35;;;5.80;99.90;;;;;;5113574;28;20055;-76
2021/12/15 03:35:47;;;;;;;74.10;23.35;;;5.80;99.90;;;;;;5112809;28;20058;-76
2021/12/15 03:38:14;;;;;;;78.05;23.48;;;5.80;99.90;;;;;;5114127;28;20052;-76
2021/12/15 03:40:43;;;;;;;80.68;24.65;;;5.80;99.90;;;;;;5113447;28;20051;-77
2021/12/15 03:43:13;;;;;;;89.93;23.77;;;5.80;99.90;;;;;;5112933;28;20058;-76
2021/12/15 03:45:44;;;;;;;80.10;24.05;;;5.80;99.90;;;;;;5111969;28;20071;-78
2021/12/15 03:48:14;;;;;;;96.03;27.10;;;5.80;99.90;;;;;;5112355;28;20044;-76
2021/12/15 03:50:43;;;;;;;78.35;23.27;;;5.80;99.90;;;;;;5113122;28;20545;-76
2021/12/15 03:53:11;;;;;;;83.43;25.05;;;5.80;99.90;;;;;;5112771;28;20075;-73
2021/12/15 03:55:40;;;;;;;79.82;24.42;;;5.70;99.90;;;;;;5112450;28;20051;-75
2021/12/15 03:58:12;;;;;;;77.70;23.73;;;5.70;99.90;;;;;;5112228;28;20088;-76
2021/12/15 04:00:42;;;;;;;79.07;23.90;;;5.80;99.90;;;;;;5113559;28;20074;-75
2021/12/15 04:03:17;;;;;;;84.05;24.42;;;5.80;99.90;;;;;;5112263;28;20141;-77
2021/12/15 04:05:45;;;;;;;80.13;24.02;;;5.90;99.90;;;;;;5111812;28;20153;-74
2021/12/15 04:08:12;;;;;;;93.15;25.88;;;5.90;99.90;;;;;;5112607;28;20093;-74
2021/12/15 04:10:39;;;;;;;80.22;22.90;;;5.90;99.90;;;;;;5112602;28;20048;-74
2021/12/15 04:13:09;;;;;;;81.30;20.88;;;5.80;99.90;;;;;;5112092;28;20062;-75
2021/12/15 04:15:43;;;;;;;79.43;22.17;;;5.80;99.90;;;;;;5112606;28;20047;-74
2021/12/15 04:18:11;;;;;;;88.90;22.30;;;5.80;99.90;;;;;;5112357;28;20058;-74
2021/12/15 04:20:40;;;;;;;83.07;20.95;;;5.90;99.90;;;;;;5112346;28;20050;-74
2021/12/15 04:23:10;;;;;;;86.78;22.45;;;5.80;99.90;;;;;;5111904;28;20077;-76
2021/12/15 04:25:39;;;;;;;90.47;22.50;;;5.90;99.90;;;;;;5111204;28;20051;-74
2021/12/15 04:28:11;;;;;;;77.80;23.42;;;5.80;99.90;;;;;;5112504;28;20044;-77
2021/12/15 04:30:43;;;;;;;71.50;21.30;;;5.90;99.90;;;;;;5112263;28;20478;-74
2021/12/15 04:33:16;;;;;;;66.07;20.08;;;5.80;99.90;;;;;;5112029;28;20047;-74
2021/12/15 04:35:44;;;;;;;75.00;22.48;;;5.70;99.90;;;;;;5111285;28;20055;-74
2021/12/15 04:38:12;;;;;;;74.40;21.67;;;5.70;99.90;;;;;;5111950;28;20055;-74
2021/12/15 04:40:41;;;;;;;75.68;23.60;;;5.70;99.90;;;;;;5112030;28;20047;-75
2021/12/15 04:43:10;;;;;;;78.68;21.33;;;5.70;99.90;;;;;;5111993;28;20093;-74
2021/12/15 04:45:38;;;;;;;75.82;21.30;;;5.80;99.90;;;;;;5111667;28;20056;-75
2021/12/15 04:48:06;;;;;;;80.07;22.98;;;5.70;99.90;;;;;;5112088;28;20059;-74
2021/12/15 04:50:34;;;;;;;85.00;23.90;;;5.80;99.90;;;;;;5112062;28;20053;-75
2021/12/15 04:53:03;;;;;;;89.93;23.42;;;5.80;99.90;;;;;;5112052;28;20048;-74
2021/12/15 04:55:33;;;;;;;96.00;23.95;;;5.80;99.90;;;;;;5111489;28;20055;-75
2021/12/15 04:58:01;;;;;;;88.80;23.10;;;5.80;99.90;;;;;;5111814;28;20063;-75
2021/12/15 05:00:33;;;;;;;95.22;27.13;;;5.80;99.90;;;;;;5112173;28;20047;-76
2021/12/15 05:03:00;;;;;;;93.13;24.13;;;5.80;99.90;;;;;;5111232;28;20103;-76
2021/12/15 05:05:29;;;;;;;98.53;24.48;;;5.80;99.90;;;;;;5111570;28;20052;-77
2021/12/15 05:07:57;;;;;;;84.60;21.90;;;5.80;99.90;;;;;;5111665;28;20465;-74
2021/12/15 05:10:26;;;;;;;87.47;23.85;;;5.90;99.90;;;;;;5116265;28;20483;-75
2021/12/15 05:12:53;;;;;;;77.95;22.52;;;5.80;99.90;;;;;;5116112;28;20059;-75
2021/12/15 05:15:20;;;;;;;108.57;23.77;;;5.80;99.90;;;;;;5114802;28;20435;-75
2021/12/15 05:17:48;;;;;;;130.32;25.27;;;5.80;99.90;;;;;;5115484;28;20058;-75
2021/12/15 05:20:16;;;;;;;182.82;29.52;;;5.80;99.90;;;;;;5116233;28;20055;-75
2021/12/15 05:22:43;;;;;;;157.32;29.70;;;5.80;99.90;;;;;;5115799;28;20048;-75
2021/12/15 05:25:11;;;;;;;239.07;33.65;;;5.70;99.90;;;;;;5114968;28;20248;-75
2021/12/15 05:27:40;;;;;;;146.15;28.33;;;5.70;99.90;;;;;;5115684;28;20052;-75
2021/12/15 05:30:10;;;;;;;143.90;27.10;;;5.70;99.90;;;;;;5114796;28;20507;-75
2021/12/15 05:32:37;;;;;;;157.20;30.35;;;5.70;99.90;;;;;;5115733;28;20472;-75
2021/12/15 05:35:09;;;;;;;204.23;33.22;;;5.70;99.90;;;;;;5114755;28;20044;-76
2021/12/15 05:37:37;;;;;;;222.60;31.85;;;5.70;99.90;;;;;;5115617;28;20051;-76
2021/12/15 05:40:06;;;;;;;181.05;29.55;;;5.60;99.90;;;;;;5116330;28;20059;-75
2021/12/15 05:42:33;;;;;;;202.90;31.50;;;5.60;99.90;;;;;;5115224;28;20047;-75
2021/12/15 05:45:00;;;;;;;211.05;31.20;;;5.70;99.90;;;;;;5114531;28;20060;-75
2021/12/15 05:47:29;;;;;;;184.55;32.13;;;5.70;99.90;;;;;;5115190;28;20109;-75
2021/12/15 05:49:56;;;;;;;155.10;28.00;;;5.70;99.90;;;;;;5115382;28;20048;-75
2021/12/15 05:52:27;;;;;;;87.80;20.02;;;5.60;99.90;;;;;;5115429;28;20089;-75
2021/12/15 05:54:55;;;;;;;107.35;23.85;;;5.50;99.90;;;;;;5114256;28;20051;-75
2021/12/15 05:57:22;;;;;;;87.55;20.95;;;5.60;99.90;;;;;;5114910;28;20043;-75
2021/12/15 05:59:49;;;;;;;77.90;18.55;;;5.60;99.90;;;;;;5115015;28;20419;-74
2021/12/15 06:02:16;;;;;;;66.22;18.33;;;5.50;99.90;;;;;;5114452;28;20044;-76
2021/12/15 06:04:44;;;;;;;64.13;18.20;;;5.60;99.90;;;;;;5113917;28;20048;-75
2021/12/15 06:07:11;;;;;;;60.42;17.60;;;5.40;99.90;;;;;;5114911;28;20051;-76
2021/12/15 06:09:39;;;;;;;72.32;19.67;;;5.50;99.90;;;;;;5114489;28;20058;-75
2021/12/15 06:12:08;;;;;;;67.90;20.45;;;5.60;99.90;;;;;;5114153;28;20465;-75
2021/12/15 06:14:36;;;;;;;63.22;19.73;;;5.50;99.90;;;;;;5113898;28;20051;-75
2021/12/15 06:17:10;;;;;;;60.78;17.98;;;5.60;99.90;;;;;;5113661;28;20048;-76
2021/12/15 06:19:38;;;;;;;53.80;18.60;;;5.60;99.90;;;;;;5114940;28;20054;-75
2021/12/15 06:22:06;;;;;;;58.03;18.00;;;5.60;99.90;;;;;;5114130;28;20104;-75
2021/12/15 06:24:36;;;;;;;54.45;18.48;;;5.60;99.90;;;;;;5114011;28;20081;-78
2021/12/15 06:27:10;;;;;;;58.50;18.95;;;5.60;99.90;;;;;;5114307;28;20058;-74
2021/12/15 06:29:37;;;;;;;64.30;20.23;;;5.50;99.90;;;;;;5114391;28;20051;-75
2021/12/15 06:32:05;;;;;;;65.20;19.92;;;5.40;99.90;;;;;;5113964;28;20062;-75
2021/12/15 06:34:32;;;;;;;64.65;19.95;;;5.40;99.90;;;;;;5113886;28;20059;-77
2021/12/15 06:37:00;;;;;;;65.10;21.55;;;5.40;99.90;;;;;;5114028;27;20062;-79
2021/12/15 06:39:27;;;;;;;66.07;19.70;;;5.40;99.90;;;;;;5113894;28;20500;-75
2021/12/15 06:41:54;;;;;;;58.90;19.63;;;5.40;99.90;;;;;;5114458;28;20051;-74
2021/12/15 06:44:23;;;;;;;62.28;19.60;;;5.40;99.90;;;;;;5113778;28;20051;-75
2021/12/15 06:47:33;;;;;;;67.70;21.48;;;5.40;99.90;;;;;;5113431;28;20051;-74
2021/12/15 06:58:24;;;;;;;77.70;25.35;;;5.40;99.90;;;;;;5049454;27;20106;-73
2021/12/15 07:00:56;;;;;;;73.07;22.63;;;5.40;99.90;;;;;;5113865;28;20054;-76
2021/12/15 07:03:25;;;;;;;67.65;21.73;;;5.40;99.90;;;;;;5113481;28;20046;-75
2021/12/15 07:05:55;;;;;;;75.70;23.40;;;5.50;99.90;;;;;;5112572;28;20047;-74
2021/12/15 07:08:22;;;;;;;66.75;22.08;;;5.50;99.90;;;;;;5113676;28;20059;-73
2021/12/15 07:10:52;;;;;;;71.55;21.95;;;5.50;99.90;;;;;;5113322;28;20070;-77
2021/12/15 07:13:23;;;;;;;63.42;21.30;;;5.50;99.90;;;;;;5112647;28;20051;-76
2021/12/15 07:15:59;;;;;;;70.65;21.42;;;5.50;99.90;;;;;;5112732;28;20079;-75
2021/12/15 07:18:36;;;;;;;79.95;21.70;;;5.50;99.90;;;;;;5113228;28;20043;-73
2021/12/15 07:21:07;;;;;;;71.57;23.23;;;5.50;99.90;;;;;;5113491;28;20495;-76
2021/12/15 07:23:35;;;;;;;74.63;23.50;;;5.40;99.90;;;;;;5113118;28;20108;-76
2021/12/15 07:26:02;;;;;;;71.82;23.63;;;5.50;99.90;;;;;;5112098;28;20043;-75
2021/12/15 07:28:29;;;;;;;79.00;23.33;;;5.50;99.90;;;;;;5113128;28;20407;-75
2021/12/15 07:30:58;;;;;;;66.10;21.35;;;5.50;99.90;;;;;;5112168;28;20083;-77
2021/12/15 07:33:25;;;;;;;76.45;22.20;;;5.50;99.90;;;;;;5111988;28;20104;-77
2021/12/15 07:35:52;;;;;;;79.72;24.23;;;5.50;99.90;;;;;;5108660;22;20054;-69
2021/12/15 07:38:19;;;;;;;78.13;24.40;;;5.50;99.90;;;;;;5093045;28;20059;-70
2021/12/15 07:40:46;;;;;;;85.10;25.23;;;5.50;99.90;;;;;;5091797;28;20056;-69
2021/12/15 07:43:24;;;;;;;87.25;24.60;;;5.50;99.90;;;;;;5093205;28;20052;-69
2021/12/15 07:45:58;;;;;;;92.45;25.10;;;5.50;99.90;;;;;;5093537;28;20052;-69
2021/12/15 07:48:28;;;;;;;101.88;25.63;;;5.60;99.90;;;;;;5094349;28;20098;-69
2021/12/15 07:50:59;;;;;;;94.03;26.15;;;5.60;99.90;;;;;;5092234;28;20044;-69
2021/12/15 07:53:26;;;;;;;106.40;25.40;;;5.60;99.90;;;;;;5091922;28;20071;-69
2021/12/15 07:55:54;;;;;;;91.07;23.70;;;5.60;99.90;;;;;;5091236;28;20093;-69
2021/12/15 07:58:23;;;;;;;88.90;23.38;;;5.60;99.90;;;;;;5091537;28;20094;-69
2021/12/15 08:00:52;;;;;;;92.70;24.67;;;5.70;99.90;;;;;;5091530;28;20098;-69
2021/12/15 08:03:21;;;;;;;90.00;24.15;;;5.70;99.90;;;;;;5090790;28;20584;-69
2021/12/15 08:05:51;;;;;;;85.70;23.05;;;5.70;99.90;;;;;;5089629;28;20047;-69
2021/12/15 08:08:19;;;;;;;76.90;21.88;;;5.70;99.90;;;;;;5090453;28;20043;-68
2021/12/15 08:10:47;;;;;;;75.65;23.60;;;5.60;99.90;;;;;;5090205;28;20113;-69
2021/12/15 08:13:16;;;;;;;66.05;20.38;;;5.70;99.90;;;;;;5089810;28;20100;-69
2021/12/15 08:15:43;;;;;;;70.10;20.73;;;5.70;99.90;;;;;;5089214;28;20466;-68
2021/12/15 08:18:10;;;;;;;75.80;22.25;;;5.80;99.90;;;;;;5090263;28;20059;-69
2021/12/15 08:20:41;;;;;;;65.45;19.60;;;5.80;99.90;;;;;;5089894;28;20415;-69
2021/12/15 08:23:09;;;;;;;62.03;19.98;;;5.80;99.90;;;;;;5089733;28;20477;-68
2021/12/15 08:25:37;;;;;;;72.82;20.13;;;5.80;99.90;;;;;;5089016;28;20040;-68
2021/12/15 08:28:06;;;;;;;71.90;21.33;;;5.80;99.90;;;;;;5089775;28;20177;-68
2021/12/15 08:30:34;;;;;;;65.03;20.25;;;5.90;99.90;;;;;;5090984;28;20113;-68
2021/12/15 08:33:03;;;;;;;62.45;19.80;;;5.90;99.90;;;;;;5090019;28;20880;-69
2021/12/15 08:35:34;;;;;;;73.25;20.80;;;5.90;99.90;;;;;;5088847;28;20056;-69
2021/12/15 08:38:03;;;;;;;62.75;19.58;;;5.90;99.90;;;;;;5089728;28;20052;-69
2021/12/15 08:40:30;;;;;;;67.35;19.98;;;5.90;99.90;;;;;;5090083;28;20407;-69
2021/12/15 08:42:59;;;;;;;67.45;20.08;;;6.00;99.90;;;;;;5089532;28;20051;-69
2021/12/15 08:45:27;;;;;;;63.63;18.77;;;5.90;99.90;;;;;;5093210;28;20052;-69
2021/12/15 08:47:57;;;;;;;60.20;17.42;;;6.00;99.90;;;;;;5093754;28;20051;-68
2021/12/15 08:50:27;;;;;;;64.68;20.50;;;6.00;99.90;;;;;;5093777;28;20602;-69
2021/12/15 08:52:54;;;;;;;55.45;17.75;;;6.10;99.90;;;;;;5093842;28;20549;-68
2021/12/15 08:55:24;;;;;;;62.80;17.58;;;6.10;99.90;;;;;;5092525;28;20040;-68
2021/12/15 08:57:53;;;;;;;60.85;19.17;;;6.20;99.90;;;;;;5093692;28;20169;-69
2021/12/15 09:00:22;;;;;;;56.42;19.48;;;6.20;99.90;;;;;;5093819;28;20098;-68
2021/12/15 09:02:50;;;;;;;68.72;20.17;;;6.20;99.90;;;;;;5093321;28;20044;-68
2021/12/15 09:05:21;;;;;;;71.85;21.40;;;6.10;99.90;;;;;;5092838;28;20184;-68
2021/12/15 09:07:49;;;;;;;67.20;18.88;;;6.20;99.90;;;;;;5093380;28;20592;-68
2021/12/15 09:10:16;;;;;;;63.13;19.15;;;6.40;99.90;;;;;;5093326;28;20055;-68
2021/12/15 09:12:45;;;;;;;65.10;20.65;;;6.30;99.90;;;;;;5093303;28;20101;-68
2021/12/15 09:15:13;;;;;;;65.72;19.83;;;6.20;99.90;;;;;;5092573;28;20068;-68
2021/12/15 09:17:40;;;;;;;62.08;21.63;;;6.20;99.90;;;;;;5093479;28;20048;-68
2021/12/15 09:20:11;;;;;;;65.25;20.90;;;6.30;99.90;;;;;;5093310;28;20048;-68
2021/12/15 09:22:39;;;;;;;65.35;21.35;;;6.30;99.90;;;;;;5092861;28;20052;-70
2021/12/15 09:25:08;;;;;;;55.83;18.85;;;6.30;99.90;;;;;;5092292;28;20385;-71
2021/12/15 09:27:35;;;;;;;62.72;20.80;;;6.20;99.90;;;;;;5093568;28;20087;-69
2021/12/15 09:30:05;;;;;;;66.80;21.00;;;6.40;99.90;;;;;;5093749;28;20117;-69
2021/12/15 09:32:32;;;;;;;56.35;19.80;;;6.40;99.90;;;;;;5093861;28;20048;-68
2021/12/15 09:34:59;;;;;;;67.07;21.55;;;6.60;99.90;;;;;;5092395;28;20060;-68
2021/12/15 09:37:28;;;;;;;56.00;20.73;;;6.80;99.90;;;;;;5092816;28;20056;-69
2021/12/15 09:39:55;;;;;;;52.28;19.08;;;7.00;99.90;;;;;;5092975;28;20105;-68
2021/12/15 09:42:29;;;;;;;53.97;20.02;;;6.90;99.90;;;;;;5093327;28;20495;-68
2021/12/15 09:45:02;;;;;;;49.10;18.48;;;7.00;99.90;;;;;;5092204;28;20052;-69
2021/12/15 09:47:47;;;;;;;50.33;19.40;;;6.90;99.90;;;;;;5092864;28;20529;-68
2021/12/15 10:04:22;;;;;;;51.33;19.08;;;7.10;99.90;;;;;;5092378;28;20079;-68
2021/12/15 10:07:15;;;;;;;46.58;18.25;;;7.10;99.90;;;;;;5092173;28;20051;-68
2021/12/15 10:12:32;;;;;;;47.63;19.15;;;7.20;99.90;;;;;;5092464;28;20423;-68
2021/12/15 10:18:00;;;;;;;47.33;19.35;;;7.40;99.90;;;;;;5092538;28;20058;-69
2021/12/15 10:20:31;;;;;;;47.05;18.80;;;7.40;99.90;;;;;;5093014;28;20094;-69
2021/12/15 10:23:02;;;;;;;51.85;20.83;;;7.20;99.90;;;;;;5092194;28;20139;-69
2021/12/15 10:25:32;;;;;;;47.47;19.50;;;7.30;99.90;;;;;;5091607;28;20127;-69
2021/12/15 10:28:03;;;;;;;45.38;18.42;;;7.40;99.90;;;;;;5092110;28;20101;-69
2021/12/15 10:30:34;;;;;;;44.90;18.88;;;7.30;99.90;;;;;;5092268;28;20113;-69
2021/12/15 10:33:04;;;;;;;54.78;19.88;;;7.30;99.90;;;;;;5092001;28;20217;-69
2021/12/15 10:35:35;;;;;;;54.33;21.27;;;7.40;99.90;;;;;;5090742;28;20048;-69
2021/12/15 10:38:16;;;;;;;50.13;18.17;;;7.40;99.90;;;;;;5092201;28;20121;-69
2021/12/15 10:40:45;;;;;;;51.47;21.00;;;7.20;99.90;;;;;;5091960;28;20052;-69
2021/12/15 10:43:12;;;;;;;51.28;19.23;;;7.20;99.90;;;;;;5091492;28;20085;-69
2021/12/15 10:45:44;;;;;;;53.33;19.13;;;7.20;99.90;;;;;;5091089;28;20051;-69
2021/12/15 10:48:21;;;;;;;51.08;19.75;;;7.30;99.90;;;;;;5091794;28;20117;-69
2021/12/15 10:50:49;;;;;;;51.95;20.35;;;7.40;99.90;;;;;;5092270;28;20052;-69
2021/12/15 10:53:31;;;;;;;48.53;19.83;;;7.50;99.90;;;;;;5091890;28;20097;-69
2021/12/15 10:55:58;;;;;;;45.63;18.10;;;7.60;99.90;;;;;;5092338;28;20143;-69
2021/12/15 10:58:36;;;;;;;47.55;18.50;;;7.50;99.90;;;;;;5092412;28;20048;-69
2021/12/15 11:01:26;;;;;;;36.53;15.00;;;7.50;99.90;;;;;;5092264;28;20044;-69
2021/12/15 11:03:53;;;;;;;30.13;12.70;;;7.40;99.90;;;;;;5091716;28;20106;-69
2021/12/15 11:06:27;;;;;;;26.65;12.10;;;7.40;99.90;;;;;;5090784;28;20044;-69
2021/12/15 11:09:16;;;;;;;27.50;11.90;;;7.30;99.90;;;;;;5092407;28;20052;-69
2021/12/15 11:12:00;;;;;;;33.63;15.35;;;7.20;99.90;;;;;;5092436;28;20089;-69
2021/12/15 11:14:30;;;;;;;31.77;13.52;;;7.30;99.90;;;;;;5090718;28;20496;-69
2021/12/15 11:17:05;;;;;;;31.13;13.40;;;7.30;99.90;;;;;;5091596;28;20048;-69
2021/12/15 11:19:46;;;;;;;33.75;15.52;;;7.40;99.90;;;;;;5091919;28;20113;-69
2021/12/15 11:22:34;;;;;;;34.17;15.20;;;7.50;99.90;;;;;;5091651;28;20048;-69
2021/12/15 11:25:02;;;;;;;26.77;12.75;;;7.60;99.90;;;;;;5091315;28;20052;-69
2021/12/15 11:27:30;;;;;;;29.08;13.63;;;7.50;99.90;;;;;;5091947;28;20056;-69
2021/12/15 11:29:57;;;;;;;28.25;13.35;;;7.50;99.90;;;;;;5091944;28;20063;-69
2021/12/15 11:32:46;;;;;;;26.85;12.45;;;7.40;99.90;;;;;;5091292;28;20357;-69
2021/12/15 11:35:18;;;;;;;25.67;11.82;;;7.50;99.90;;;;;;5091232;28;20052;-69
2021/12/15 11:37:55;;;;;;;26.52;12.20;;;7.50;99.90;;;;;;5093337;28;20059;-69
2021/12/15 11:40:24;;;;;;;;;;;7.50;99.90;;;;;;5091860;28;20450;-69
2021/12/15 11:42:51;;;;;;;24.63;10.73;;;7.40;99.90;;;;;;5091669;28;20437;-69
2021/12/15 11:45:19;;;;;;;28.83;12.73;;;7.30;99.90;;;;;;5090695;28;20492;-69
2021/12/15 11:47:46;;;;;;;27.58;11.98;;;7.20;99.90;;;;;;5091350;28;20056;-69
2021/12/15 11:50:15;;;;;;;25.48;11.98;;;7.20;99.90;;;;;;5090999;28;20101;-69
2021/12/15 11:52:45;;;;;;;27.08;12.63;;;7.30;99.90;;;;;;5091080;28;20105;-68
2021/12/15 11:55:33;;;;;;;29.52;14.55;;;7.40;99.90;;;;;;5089951;28;20044;-69
2021/12/15 11:58:03;;;;;;;29.40;13.00;;;7.30;99.90;;;;;;5072673;28;20245;-69
2021/12/15 12:00:32;;;;;;;29.10;13.65;;;7.30;99.90;;;;;;5091166;28;20105;-69
2021/12/15 12:03:00;;;;;;;31.05;13.93;;;7.20;99.90;;;;;;5090827;28;20392;-69
2021/12/15 12:05:30;;;;;;;33.22;15.27;;;7.30;99.90;;;;;;5090259;28;20048;-69
2021/12/15 12:07:59;;;;;;;30.48;14.80;;;7.40;99.90;;;;;;5091228;28;20052;-69
2021/12/15 12:10:32;;;;;;;29.23;13.13;;;7.30;99.90;;;;;;5091115;28;20055;-69
2021/12/15 12:13:07;;;;;;;29.23;14.85;;;7.30;99.90;;;;;;5090179;28;20051;-69
2021/12/15 12:15:41;;;;;;;31.40;14.10;;;7.30;99.90;;;;;;5088726;28;20056;-69
2021/12/15 12:18:10;;;;;;;29.50;13.43;;;7.20;99.90;;;;;;5095980;28;20048;-69
2021/12/15 12:20:39;;;;;;;26.38;11.93;;;7.20;99.90;;;;;;5101430;28;20044;-69
2021/12/15 12:23:10;;;;;;;31.52;15.13;;;7.20;99.90;;;;;;5093129;28;20495;-69
2021/12/15 12:25:41;;;;;;;37.45;15.40;;;7.20;99.90;;;;;;5089511;28;20094;-69
2021/12/15 12:28:13;;;;;;;30.30;13.02;;;7.30;99.90;;;;;;5089547;28;20052;-69
2021/12/15 12:30:48;;;;;;;27.40;13.20;;;7.30;99.90;;;;;;5089782;28;20048;-69
2021/12/15 12:33:18;;;;;;;23.92;11.95;;;7.30;99.90;;;;;;5089575;28;20058;-69
2021/12/15 12:35:48;;;;;;;24.15;11.30;;;7.40;99.90;;;;;;5088859;28;20101;-69
2021/12/15 12:38:18;;;;;;;28.08;11.85;;;7.20;99.90;;;;;;5087028;28;20052;-69
2021/12/15 12:40:56;;;;;;;30.20;11.80;;;7.30;99.90;;;;;;5075784;28;20048;-69
2021/12/15 12:43:26;;;;;;;16.20;7.25;;;7.30;99.90;;;;;;5073350;28;20092;-69
2021/12/15 12:45:58;;;;;;;17.38;7.72;;;7.30;99.90;;;;;;5075529;28;20094;-69
2021/12/15 12:48:42;;;;;;;13.18;5.63;;;7.40;99.90;;;;;;5076095;28;20121;-69
2021/12/15 12:59:44;;;;;;;14.77;6.85;;;7.40;99.90;;;;;;5085748;28;20055;-69
2021/12/15 13:02:40;;;;;;;16.63;7.65;;;7.40;99.90;;;;;;5075541;28;20052;-69
2021/12/15 13:05:27;;;;;;;13.55;6.60;;;7.50;99.90;;;;;;5085014;28;20102;-69
2021/12/15 13:07:57;;;;;;;13.75;6.80;;;7.60;99.90;;;;;;5076058;28;20047;-68
2021/12/15 13:10:55;;;;;;;13.10;6.00;;;7.60;99.90;;;;;;5083187;28;20106;-68
2021/12/15 13:13:27;;;;;;;12.00;5.78;;;7.70;99.90;;;;;;5071070;28;20554;-68
2021/12/15 13:15:57;;;;;;;12.95;6.35;;;7.70;99.90;;;;;;5081838;28;20574;-69
2021/12/15 13:18:25;;;;;;;12.27;5.68;;;7.60;99.90;;;;;;5085225;28;20104;-68
2021/12/15 13:21:00;;;;;;;14.02;7.38;;;7.60;99.90;;;;;;5081443;28;20101;-68
2021/12/15 13:23:42;;;;;;;13.10;6.38;;;7.60;99.90;;;;;;5090158;28;20117;-68
2021/12/15 13:29:22;;;;;;;10.57;5.63;;;7.60;99.90;;;;;;5090136;28;20050;-69
2021/12/15 13:31:55;;;;;;;12.90;5.60;;;7.50;99.90;;;;;;5093701;28;20522;-69
